createdAt,value
2019-05-06T15:01:05.626Z,7.42
2019-05-06T15:03:37.438Z,5.93
2019-05-06T15:06:09.534Z,15.95
2019-05-06T15:08:42.773Z,9.00
2019-05-06T15:11:14.489Z,8.20
2019-05-06T15:13:46.932Z,9.58
2019-05-06T15:16:18.563Z,10.88
2019-05-06T15:18:49.933Z,13.15
2019-05-06T15:21:36.512Z,11.73
2019-05-06T15:23:55.140Z,7.72
2019-05-06T15:26:26.829Z,10.32
2019-05-06T15:28:58.368Z,9.95
2019-05-06T15:31:31.507Z,14.38
2019-05-06T15:34:07.666Z,14.20
2019-05-06T15:36:46.773Z,7.35
2019-05-06T15:39:18.274Z,6.20
2019-05-06T15:41:51.944Z,9.25
2019-05-06T15:44:23.391Z,18.45
2019-05-06T15:46:55.281Z,15.93
2019-05-06T15:49:27.034Z,8.55
2019-05-06T15:51:58.356Z,19.82
2019-05-06T15:54:32.131Z,13.93
2019-05-06T15:57:03.711Z,23.35
2019-05-06T15:59:35.621Z,34.88
2019-05-06T16:02:12.915Z,21.87
2019-05-06T16:04:46.371Z,21.15
2019-05-06T16:07:18.026Z,18.55
2019-05-06T16:09:49.666Z,14.93
2019-05-06T16:12:22.069Z,17.40
2019-05-06T16:14:53.649Z,19.27
2019-05-06T16:17:25.151Z,20.50
2019-05-06T16:19:56.621Z,16.87
2019-05-06T16:22:28.238Z,19.90
2019-05-06T16:25:02.701Z,26.30
2019-05-06T16:27:34.550Z,19.65
2019-05-06T16:30:13.096Z,26.30
2019-05-06T16:32:44.777Z,19.87
2019-05-06T16:35:16.394Z,20.05
2019-05-06T16:37:47.994Z,33.05
2019-05-06T16:40:19.666Z,15.68
2019-05-06T16:42:54.107Z,27.15
2019-05-06T16:45:24.907Z,17.12
2019-05-06T16:47:56.769Z,9.23
2019-05-06T16:50:32.446Z,19.60
2019-05-06T16:53:03.713Z,16.70
2019-05-06T16:55:55.701Z,7.40
2019-05-06T16:58:32.385Z,16.15
2019-05-06T17:01:06.074Z,19.30
2019-05-06T17:03:48.673Z,21.17
2019-05-06T17:06:23.184Z,19.77
2019-05-06T17:08:54.962Z,25.37
2019-05-06T17:11:30.751Z,15.78
2019-05-06T17:16:31.052Z,43.73
2019-05-06T17:19:03.523Z,48.38
2019-05-06T17:21:36.230Z,47.05
2019-05-06T17:24:07.972Z,58.15
2019-05-06T17:26:42.436Z,60.92
2019-05-06T17:29:19.190Z,48.78
2019-05-06T17:31:53.801Z,78.12
2019-05-06T17:34:27.799Z,102.12
2019-05-06T17:37:06.325Z,119.53
2019-05-06T17:39:44.211Z,101.53
2019-05-06T17:42:18.299Z,84.83
2019-05-06T17:47:53.784Z,62.83
2019-05-06T17:53:31.608Z,72.17
2019-05-06T17:56:12.548Z,84.40
2019-05-06T17:59:03.026Z,59.55
2019-05-06T18:01:44.717Z,50.70
2019-05-06T18:04:23.622Z,59.23
2019-05-06T18:06:59.195Z,75.83
2019-05-06T18:09:37.317Z,53.80
2019-05-06T18:12:14.664Z,57.23
2019-05-06T18:17:42.639Z,90.45
2019-05-06T18:20:15.002Z,90.12
2019-05-06T18:22:47.271Z,85.65
2019-05-06T18:25:19.022Z,44.75
2019-05-06T18:27:52.610Z,54.77
2019-05-06T18:30:33.679Z,50.78
2019-05-06T18:33:03.526Z,62.45
2019-05-06T18:35:35.073Z,52.43
2019-05-06T18:38:07.127Z,64.87
2019-05-06T18:40:42.346Z,62.95
2019-05-06T18:43:15.671Z,63.98
2019-05-06T18:45:47.120Z,53.60
2019-05-06T18:48:21.346Z,55.65
2019-05-06T18:50:53.251Z,70.47
2019-05-06T18:53:24.959Z,65.28
2019-05-06T18:55:58.134Z,61.70
2019-05-06T18:58:30.821Z,61.95
2019-05-06T19:01:04.065Z,55.38
2019-05-06T19:03:53.460Z,55.17
2019-05-06T19:06:25.365Z,45.30
2019-05-06T19:09:06.027Z,45.12
2019-05-06T19:11:38.094Z,43.65
2019-05-06T19:14:12.655Z,39.80
2019-05-06T19:16:49.705Z,29.82
2019-05-06T19:19:18.583Z,39.60
2019-05-06T19:21:52.285Z,37.50
2019-05-06T19:24:23.771Z,40.10
2019-05-06T19:26:55.718Z,38.83
2019-05-06T19:29:27.520Z,33.55
2019-05-06T19:31:59.238Z,36.03
2019-05-06T19:34:34.560Z,24.90
2019-05-06T19:37:04.122Z,34.30
2019-05-06T19:39:36.040Z,38.15
2019-05-06T19:42:07.597Z,23.18
2019-05-06T19:44:39.207Z,30.10
2019-05-06T19:47:10.647Z,28.10
2019-05-06T19:49:44.048Z,22.27
2019-05-06T19:52:15.483Z,37.30
2019-05-06T19:54:47.579Z,27.55
2019-05-06T19:57:19.388Z,41.65
2019-05-06T19:59:52.159Z,24.87
2019-05-06T20:02:25.805Z,25.88
2019-05-06T20:07:34.536Z,19.40
2019-05-06T20:10:12.359Z,18.80
2019-05-06T20:13:01.660Z,30.52
2019-05-06T20:15:38.685Z,25.27
2019-05-06T20:18:10.479Z,44.70
2019-05-06T20:20:42.638Z,40.35
2019-05-06T20:23:14.136Z,37.42
2019-05-06T20:25:46.030Z,21.17
2019-05-06T20:28:18.583Z,19.60
2019-05-06T20:30:50.269Z,18.70
2019-05-06T20:33:22.740Z,17.77
2019-05-06T20:35:54.361Z,19.92
2019-05-06T20:38:25.864Z,26.12
2019-05-06T20:40:57.713Z,14.87
2019-05-06T20:43:29.272Z,16.75
2019-05-06T20:46:02.738Z,16.17
2019-05-06T20:48:33.977Z,18.00
2019-05-06T20:51:05.563Z,16.20
2019-05-06T20:53:36.944Z,11.43
2019-05-06T20:56:08.300Z,16.02
2019-05-06T20:58:41.836Z,14.07
2019-05-06T21:01:13.220Z,18.45
2019-05-06T21:03:44.579Z,15.13
2019-05-06T21:06:16.075Z,18.02
2019-05-06T21:08:47.457Z,15.43
2019-05-06T21:11:26.392Z,24.72
2019-05-06T21:13:52.204Z,20.27
2019-05-06T21:16:23.753Z,13.32
2019-05-06T21:18:58.339Z,19.10
2019-05-06T21:21:28.460Z,18.70
2019-05-06T21:24:01.890Z,14.47
2019-05-06T21:41:57.351Z,19.98
2019-05-06T21:44:29.301Z,23.22
2019-05-06T21:47:02.961Z,15.20
2019-05-06T21:49:33.906Z,16.52
2019-05-06T21:52:05.329Z,24.25
2019-05-06T21:54:36.625Z,21.87
2019-05-06T21:57:07.948Z,34.98
2019-05-06T21:59:39.234Z,25.60
2019-05-06T22:02:12.172Z,31.25
2019-05-06T22:04:43.625Z,26.85
2019-05-06T22:07:15.283Z,24.02
2019-05-06T22:09:47.139Z,27.10
2019-05-06T22:12:18.692Z,17.27
2019-05-06T22:14:50.476Z,22.52
2019-05-06T22:17:22.619Z,16.02
2019-05-06T22:19:53.977Z,165.28
2019-05-06T22:22:26.899Z,21.10
2019-05-06T22:24:58.191Z,31.95
2019-05-06T22:27:29.653Z,19.07
2019-05-06T22:30:03.246Z,12.73
2019-05-06T22:32:36.030Z,16.55
2019-05-06T22:35:07.683Z,19.95
2019-05-06T22:37:39.444Z,16.07
2019-05-06T22:40:12.735Z,12.47
2019-05-06T22:42:44.187Z,17.55
2019-05-06T22:45:16.106Z,19.15
2019-05-06T22:47:47.600Z,23.25
2019-05-06T22:50:19.353Z,11.80
2019-05-06T22:52:52.807Z,24.65
2019-05-06T22:55:24.310Z,23.67
2019-05-06T22:57:56.265Z,47.85
2019-05-06T23:00:29.459Z,36.03
2019-05-06T23:03:02.763Z,24.75
2019-05-06T23:05:34.208Z,29.20
2019-05-06T23:08:07.090Z,30.23
2019-05-06T23:10:38.844Z,32.60
2019-05-06T23:13:12.412Z,18.48
2019-05-06T23:15:43.878Z,16.20
2019-05-06T23:18:15.312Z,12.95
2019-05-06T23:20:46.611Z,10.75
2019-05-06T23:23:18.011Z,13.13
2019-05-06T23:25:52.512Z,10.53
2019-05-06T23:28:23.981Z,14.70
2019-05-06T23:30:55.270Z,14.98
2019-05-06T23:33:26.684Z,9.18
2019-05-06T23:35:57.971Z,7.30
2019-05-06T23:39:06.099Z,10.25
2019-05-06T23:42:14.090Z,15.15
2019-05-06T23:45:22.857Z,10.10
2019-05-06T23:48:31.323Z,17.50
2019-05-06T23:51:39.101Z,13.93
2019-05-06T23:54:46.922Z,20.43
2019-05-06T23:57:17.553Z,16.48
2019-05-06T23:59:49.207Z,22.85
